Time;durP1;ratioP1;P1;durP2;ratioP2;P2;SDS_P1;SDS_P2;PMS_P1;PMS_P2;Temp;Humidity;BMP_temperature;BMP_pressure;BME280_temperature;BME280_humidity;BME280_pressure;Samples;Min_cycle;Max_cycle;Signal;HPM_P1;HPM_P2
2022/12/30 00:01:58;;;;;;;4.50;1.70;;;;;;;18.41;45.98;100832.19;5064514;28;20029;-60
2022/12/30 00:04:23;;;;;;;5.05;1.90;;;;;;;18.41;45.92;100835.72;5062659;28;20044;-60
2022/12/30 00:06:49;;;;;;;3.67;1.95;;;;;;;18.37;46.01;100836.22;5064211;28;20032;-59
2022/12/30 00:09:14;;;;;;;3.47;1.58;;;;;;;18.32;46.05;100831.34;5064320;28;20029;-60
2022/12/30 00:11:39;;;;;;;5.95;2.08;;;;;;;18.31;46.05;100826.97;5068502;28;20040;-60
2022/12/30 00:34:16;;;;;;;4.13;1.92;;;;;;;18.29;45.95;100839.72;5047675;28;20027;-60
2022/12/30 00:36:41;;;;;;;4.15;2.00;;;;;;;18.30;46.02;100837.88;5067989;28;20053;-60
2022/12/30 00:39:06;;;;;;;4.50;1.60;;;;;;;18.19;45.97;100825.59;5067751;28;20017;-60
2022/12/30 00:44:15;;;;;;;3.58;1.55;;;;;;;18.28;46.16;100846.13;5067440;28;20031;-60
2022/12/30 00:46:41;;;;;;;4.13;1.83;;;;;;;18.22;46.00;100844.97;5067359;28;20065;-60
2022/12/30 00:57:19;;;;;;;2.72;1.55;;;;;;;18.22;46.11;100844.09;5067371;28;20079;-60
2022/12/30 00:59:44;;;;;;;2.67;1.35;;;;;;;18.23;46.28;100841.25;5067759;28;20024;-60
2022/12/30 01:02:09;;;;;;;3.55;1.83;;;;;;;18.23;45.82;100851.19;5067405;28;20032;-60
2022/12/30 01:04:34;;;;;;;3.50;1.35;;;;;;;18.22;45.96;100849.47;5066866;28;20119;-60
2022/12/30 01:07:00;;;;;;;3.47;1.73;;;;;;;18.21;46.08;100851.31;5067454;28;20033;-60
2022/12/30 01:09:25;;;;;;;3.53;1.75;;;;;;;18.20;45.92;100863.09;5067314;28;20033;-60
2022/12/30 01:12:07;;;;;;;2.88;1.90;;;;;;;18.19;46.11;100858.72;5067443;28;20076;-60
2022/12/30 01:14:34;;;;;;;4.05;1.80;;;;;;;18.19;46.11;100856.03;5067058;28;20028;-60
2022/12/30 01:16:59;;;;;;;4.55;1.90;;;;;;;18.18;45.88;100864.25;5066426;28;20469;-60
2022/12/30 01:19:25;;;;;;;3.70;1.58;;;;;;;18.17;46.10;100866.09;5066986;28;20045;-60
2022/12/30 01:21:50;;;;;;;3.25;1.60;;;;;;;18.16;46.10;100867.13;5066737;28;20036;-60
2022/12/30 01:24:15;;;;;;;4.22;1.95;;;;;;;18.11;46.07;100865.94;5066714;28;20085;-60
2022/12/30 01:26:40;;;;;;;4.10;1.80;;;;;;;18.06;45.97;100861.06;5067135;28;20020;-60
2022/12/30 01:29:06;;;;;;;2.97;1.63;;;;;;;18.06;46.05;100861.06;5066872;28;20025;-60
2022/12/30 01:31:31;;;;;;;3.28;1.83;;;;;;;17.92;45.88;100843.69;5067041;28;20397;-61
2022/12/30 01:33:56;;;;;;;3.65;1.70;;;;;;;18.07;45.93;100875.34;5066006;28;20036;-59
2022/12/30 01:36:21;;;;;;;3.72;1.98;;;;;;;18.11;46.09;100882.09;5066934;28;20092;-60
2022/12/30 01:38:47;;;;;;;4.15;1.77;;;;;;;18.11;45.82;100885.63;5066515;28;20501;-60
2022/12/30 01:41:12;;;;;;;6.72;1.85;;;;;;;18.10;45.88;100886.63;5099207;28;20104;-60
2022/12/30 01:43:48;;;;;;;4.28;1.70;;;;;;;18.09;45.98;100892.16;5065833;28;20024;-60
2022/12/30 01:46:21;;;;;;;5.18;2.30;;;;;;;18.08;45.95;100895.84;5066654;28;20032;-60
2022/12/30 01:48:47;;;;;;;3.70;1.83;;;;;;;18.08;45.90;100907.47;5065714;28;20037;-59
2022/12/30 01:51:19;;;;;;;2.35;1.52;;;;;;;18.07;45.90;100908.47;5066890;28;20021;-60
2022/12/30 01:53:47;;;;;;;3.55;1.60;;;;;;;18.06;45.99;100916.72;5066357;28;20025;-60
2022/12/30 01:56:16;;;;;;;4.88;1.73;;;;;;;18.05;46.20;100906.94;5066647;28;20115;-60
2022/12/30 01:58:49;;;;;;;;;;;;;;;18.04;46.10;100911.47;5099028;28;20017;-60
2022/12/30 02:01:14;;;;;;;3.97;1.65;;;;;;;18.03;45.92;100909.81;5098944;28;19912;-60
2022/12/30 02:03:44;;;;;;;2.42;1.40;;;;;;;17.95;46.01;100905.22;5064607;28;20024;-59
2022/12/30 02:06:10;;;;;;;3.08;1.80;;;;;;;18.01;46.25;100916.34;5066469;28;20021;-60
2022/12/30 02:08:35;;;;;;;3.30;1.60;;;;;;;17.99;45.92;100911.97;5066180;28;20057;-60
2022/12/30 02:11:02;;;;;;;3.97;2.05;;;;;;;17.98;46.22;100912.97;5066563;28;20021;-60
2022/12/30 02:13:27;;;;;;;2.58;1.70;;;;;;;17.98;45.96;100909.47;5065553;28;20053;-59
2022/12/30 02:16:16;;;;;;;4.95;2.50;;;;;;;17.97;46.23;100910.47;5065530;28;20492;-60
2022/12/30 02:19:19;;;;;;;2.85;1.50;;;;;;;17.97;46.23;100905.09;5098316;28;20441;-60
2022/12/30 02:22:06;;;;;;;2.45;1.55;;;;;;;17.96;46.11;100892.63;5066073;28;20040;-57
2022/12/30 02:24:55;;;;;;;3.63;1.70;;;;;;;17.94;46.27;100908.09;5065627;28;20055;-60
2022/12/30 02:27:55;;;;;;;3.08;1.40;;;;;;;17.92;46.11;100897.47;5064266;28;20025;-59
2022/12/30 02:30:21;;;;;;;4.43;1.83;;;;;;;17.92;46.14;100899.31;5065830;28;20039;-60
2022/12/30 02:33:08;;;;;;;3.50;1.52;;;;;;;17.91;46.32;100889.59;5064884;28;20055;-60
2022/12/30 02:36:05;;;;;;;2.22;1.23;;;;;;;17.90;46.13;100894.13;5065649;28;20033;-60
2022/12/30 02:39:05;;;;;;;2.97;1.63;;;;;;;17.90;46.20;100894.13;5003646;28;20050;-60
2022/12/30 02:44:37;;;;;;;3.67;1.75;;;;;;;17.89;46.38;100891.59;4955717;28;20066;-60
2022/12/30 02:47:23;;;;;;;3.25;1.50;;;;;;;17.87;46.08;100886.38;4929451;29;20048;-60
2022/12/30 02:52:38;;;;;;;3.05;2.10;;;;;;;17.85;46.39;100884.88;4931923;29;20078;-60
2022/12/30 02:55:05;;;;;;;3.83;1.88;;;;;;;17.85;45.96;100887.56;4929694;29;20062;-61
2022/12/30 02:57:32;;;;;;;3.40;1.52;;;;;;;17.84;46.11;100875.97;4945333;29;20062;-60
2022/12/30 03:06:10;;;;;;;2.50;1.48;;;;;;;17.81;46.31;100865.50;4945476;29;20071;-60
2022/12/30 03:08:39;;;;;;;3.67;1.52;;;;;;;17.80;46.47;100862.97;4944891;29;20043;-59
2022/12/30 03:11:16;;;;;;;3.42;1.83;;;;;;;17.80;46.44;100865.66;4945896;29;20031;-60
2022/12/30 03:13:53;;;;;;;4.15;1.52;;;;;;;17.79;46.22;100875.56;4959161;28;20438;-60
2022/12/30 03:16:35;;;;;;;3.63;1.75;;;;;;;17.79;46.52;100869.34;5061031;28;20052;-60
2022/12/30 03:19:04;;;;;;;3.88;1.42;;;;;;;17.78;46.13;100879.28;5096711;28;20021;-60
2022/12/30 03:21:32;;;;;;;2.00;1.30;;;;;;;17.78;46.34;100884.66;5097563;28;20028;-60
2022/12/30 03:27:05;;;;;;;2.97;1.80;;;;;;;17.76;46.24;100885.84;5092180;28;20551;-59
2022/12/30 03:29:38;;;;;;;3.03;1.50;;;;;;;17.72;46.44;100886.13;5063602;28;20495;-60
2022/12/30 03:32:05;;;;;;;2.88;1.38;;;;;;;17.73;46.41;100897.72;5063060;28;20033;-60
2022/12/30 03:34:31;;;;;;;2.22;1.45;;;;;;;17.72;46.04;100893.34;5063036;28;20071;-59
2022/12/30 03:37:02;;;;;;;2.38;1.33;;;;;;;17.72;46.36;100882.59;5064640;28;20037;-59
2022/12/30 03:39:31;;;;;;;2.35;1.67;;;;;;;17.71;46.22;100884.44;5096933;28;20016;-59
2022/12/30 03:41:57;;;;;;;;;;;;;;;17.71;46.39;100884.44;5097363;28;20029;-59
2022/12/30 03:44:22;;;;;;;2.95;1.40;;;;;;;17.71;46.37;100888.94;5064128;28;20339;-60
2022/12/30 03:46:47;;;;;;;2.53;1.40;;;;;;;17.69;46.16;100881.06;5063091;28;20092;-60
2022/12/30 03:49:13;;;;;;;2.35;1.42;;;;;;;17.69;46.23;100889.13;5063850;28;20104;-60
2022/12/30 03:51:39;;;;;;;3.20;1.50;;;;;;;17.68;46.14;100894.69;5064779;28;20052;-60
2022/12/30 03:54:04;;;;;;;2.25;1.38;;;;;;;17.67;46.22;100901.91;5064095;28;20033;-60
2022/12/30 03:56:29;;;;;;;2.53;1.50;;;;;;;17.67;46.24;100885.78;5064865;28;20032;-60
2022/12/30 03:58:55;;;;;;;1.90;1.35;;;;;;;17.66;46.48;100888.59;5064226;28;20053;-60
2022/12/30 04:01:20;;;;;;;3.72;2.00;;;;;;;17.61;46.05;100872.13;5064294;28;20051;-58
2022/12/30 04:03:45;;;;;;;3.22;1.40;;;;;;;17.66;46.25;100884.06;5064224;28;20073;-60
2022/12/30 04:06:11;;;;;;;2.22;1.25;;;;;;;17.64;46.20;100878.00;5064220;28;20033;-60
2022/12/30 04:08:36;;;;;;;2.85;1.63;;;;;;;17.64;46.13;100886.09;5063836;28;20032;-60
2022/12/30 04:11:01;;;;;;;4.65;1.40;;;;;;;17.64;46.38;100879.88;5064497;28;20021;-58
2022/12/30 04:13:27;;;;;;;1.90;1.33;;;;;;;17.63;46.50;100881.72;5063631;28;20076;-58
2022/12/30 04:15:52;;;;;;;3.00;1.42;;;;;;;17.57;46.26;100871.59;5064291;28;20377;-58
2022/12/30 04:18:18;;;;;;;3.10;1.60;;;;;;;17.63;46.43;100884.41;5064000;28;20021;-59
2022/12/30 04:20:44;;;;;;;3.67;1.75;;;;;;;17.62;46.19;100874.63;5064291;28;20537;-59
2022/12/30 04:23:10;;;;;;;2.28;1.30;;;;;;;17.62;46.35;100888.06;5064086;28;20028;-58
2022/12/30 04:25:35;;;;;;;2.65;1.60;;;;;;;17.62;46.55;100889.91;5064140;28;20087;-59
2022/12/30 04:28:00;;;;;;;3.17;1.70;;;;;;;17.62;46.13;100881.84;5063821;28;20097;-59
2022/12/30 04:30:26;;;;;;;2.53;1.30;;;;;;;17.62;46.18;100876.47;5064296;28;20032;-59
2022/12/30 04:32:51;;;;;;;2.42;1.63;;;;;;;17.63;46.52;100883.56;5063642;28;20092;-59
2022/12/30 04:35:16;;;;;;;4.03;1.45;;;;;;;17.62;46.37;100885.38;5063541;28;20017;-59
2022/12/30 04:37:41;;;;;;;2.05;1.30;;;;;;;17.62;46.56;100880.00;5064031;28;20057;-59
2022/12/30 04:40:07;;;;;;;1.55;1.27;;;;;;;17.62;46.35;100877.31;5064001;28;20021;-60
2022/12/30 04:42:33;;;;;;;2.95;1.58;;;;;;;17.62;46.40;100885.38;5063857;28;20052;-61
2022/12/30 04:44:58;;;;;;;2.17;1.30;;;;;;;17.61;46.36;100883.69;5063811;28;20037;-59
2022/12/30 04:47:23;;;;;;;3.00;1.60;;;;;;;17.63;46.57;100875.50;5063617;28;20033;-59
2022/12/30 04:49:48;;;;;;;2.90;1.48;;;;;;;17.61;46.69;100875.63;5061595;28;20431;-59
2022/12/30 04:52:14;;;;;;;2.78;1.35;;;;;;;17.63;46.75;100880.88;5054610;28;20115;-59
2022/12/30 04:54:39;;;;;;;4.53;1.88;;;;;;;17.65;46.50;100881.53;5062541;28;20024;-59
2022/12/30 04:57:04;;;;;;;2.10;1.70;;;;;;;17.64;46.49;100878.00;5066380;28;20025;-59
2022/12/30 04:59:29;;;;;;;2.20;1.58;;;;;;;17.64;46.80;100883.41;5066705;28;20432;-59
2022/12/30 05:01:55;;;;;;;3.42;1.52;;;;;;;17.65;46.63;100876.16;5066522;28;20116;-58
2022/12/30 05:04:20;;;;;;;3.42;1.38;;;;;;;17.65;46.78;100884.22;5066516;28;20040;-59
2022/12/30 05:06:45;;;;;;;3.45;1.30;;;;;;;17.65;46.87;100887.75;5067105;28;20032;-59
2022/12/30 05:09:10;;;;;;;3.30;1.80;;;;;;;17.66;46.69;100893.97;5066471;28;20028;-59
2022/12/30 05:11:36;;;;;;;1.95;1.30;;;;;;;17.66;47.06;100896.66;5066715;28;20084;-61
2022/12/30 05:14:01;;;;;;;3.33;1.42;;;;;;;17.63;47.00;100889.78;5065443;28;20036;-59
2022/12/30 05:16:26;;;;;;;3.75;1.30;;;;;;;17.63;46.98;100886.25;5066781;28;20755;-59
2022/12/30 05:18:51;;;;;;;2.60;1.38;;;;;;;17.68;46.92;100891.97;5066578;28;20029;-60
2022/12/30 05:21:17;;;;;;;5.30;1.58;;;;;;;17.69;47.16;100896.34;5066279;28;20021;-59
2022/12/30 05:26:26;;;;;;;4.57;1.65;;;;;;;17.69;47.02;100889.13;5066084;28;20043;-59
2022/12/30 05:28:51;;;;;;;2.70;1.65;;;;;;;17.69;47.14;100880.22;5065323;28;20021;-59
2022/12/30 05:31:18;;;;;;;4.60;1.67;;;;;;;17.68;47.15;100879.38;5066703;28;20059;-59
2022/12/30 05:33:43;;;;;;;4.10;1.90;;;;;;;17.69;47.14;100875.69;5066289;28;20028;-59
2022/12/30 05:36:09;;;;;;;4.13;2.05;;;;;;;17.70;47.12;100880.03;5065997;28;20024;-59
2022/12/30 05:38:34;;;;;;;4.18;1.73;;;;;;;17.71;47.09;100878.19;5066122;28;20016;-59
2022/12/30 05:41:00;;;;;;;2.60;1.58;;;;;;;17.72;47.12;100875.38;5066224;28;20081;-59
2022/12/30 05:43:25;;;;;;;2.28;1.40;;;;;;;17.73;46.92;100881.59;5066210;28;20817;-59
2022/12/30 05:45:51;;;;;;;3.47;1.73;;;;;;;17.71;47.09;100876.38;5067816;28;20043;-60
2022/12/30 05:48:16;;;;;;;3.88;1.60;;;;;;;17.65;46.98;100868.94;5065769;28;20072;-60
2022/12/30 05:50:42;;;;;;;4.15;1.55;;;;;;;17.75;47.23;100879.59;5065324;28;20108;-58
2022/12/30 05:53:08;;;;;;;2.33;1.20;;;;;;;17.74;47.23;100873.38;5066246;28;20054;-59
2022/12/30 05:55:33;;;;;;;4.13;1.45;;;;;;;17.74;47.11;100862.63;5065754;28;20389;-60
2022/12/30 05:57:58;;;;;;;4.15;1.48;;;;;;;17.77;47.19;100871.38;5065281;28;20041;-59
2022/12/30 06:00:24;;;;;;;3.65;1.40;;;;;;;17.73;47.16;100860.06;5066285;28;20028;-59
2022/12/30 06:02:49;;;;;;;3.03;1.20;;;;;;;17.77;47.09;100874.91;5065692;28;20031;-59
2022/12/30 06:05:14;;;;;;;3.10;1.42;;;;;;;17.79;47.15;100877.44;5064669;28;20731;-60
2022/12/30 06:07:39;;;;;;;4.63;1.92;;;;;;;17.79;46.98;100880.97;5063797;28;20029;-59
2022/12/30 06:10:05;;;;;;;2.35;1.35;;;;;;;17.79;47.24;100867.50;5065495;28;20526;-59
2022/12/30 06:12:31;;;;;;;2.97;1.52;;;;;;;17.80;47.01;100862.97;5065472;28;20056;-60
2022/12/30 06:14:56;;;;;;;2.47;1.17;;;;;;;17.79;47.17;100864.81;5065361;28;20017;-60
2022/12/30 06:17:22;;;;;;;4.00;1.92;;;;;;;17.81;46.90;100859.28;5065155;28;20046;-59
2022/12/30 06:19:47;;;;;;;2.60;1.35;;;;;;;17.81;46.91;100862.81;5065389;28;20025;-59
2022/12/30 06:22:12;;;;;;;3.60;1.48;;;;;;;17.81;47.12;100856.59;5071672;28;20020;-59
2022/12/30 06:24:37;;;;;;;2.75;1.45;;;;;;;17.76;46.88;100848.19;5077417;28;20079;-59
2022/12/30 06:27:03;;;;;;;3.33;1.77;;;;;;;17.81;46.97;100853.91;5065455;28;20044;-59
2022/12/30 06:29:28;;;;;;;4.72;1.77;;;;;;;17.81;46.91;100849.38;5065020;28;20052;-59
2022/12/30 06:31:53;;;;;;;3.30;2.05;;;;;;;17.82;47.10;100858.28;5065362;28;20120;-58
2022/12/30 06:34:18;;;;;;;4.05;1.67;;;;;;;17.83;46.91;100846.50;5064020;28;20128;-59
2022/12/30 06:36:44;;;;;;;2.72;1.50;;;;;;;17.81;46.96;100844.00;5065501;28;20088;-59
2022/12/30 06:39:09;;;;;;;2.35;1.40;;;;;;;17.83;47.00;100843.81;5064975;28;20045;-57
2022/12/30 06:41:34;;;;;;;4.32;1.40;;;;;;;17.83;47.00;100838.44;5065488;28;20037;-58
2022/12/30 06:43:59;;;;;;;3.67;1.38;;;;;;;17.83;47.09;100841.13;5064778;28;20057;-58
2022/12/30 06:46:25;;;;;;;3.50;1.77;;;;;;;17.74;46.91;100826.81;5065054;28;20029;-57
2022/12/30 06:48:50;;;;;;;4.65;1.45;;;;;;;17.84;47.23;100842.81;5064785;28;20113;-57
2022/12/30 06:51:15;;;;;;;4.25;1.65;;;;;;;17.83;47.08;100847.34;5065173;28;20021;-58
2022/12/30 06:53:41;;;;;;;2.17;1.30;;;;;;;17.83;46.75;100841.97;5065245;28;20074;-58
2022/12/30 06:56:06;;;;;;;2.72;1.48;;;;;;;17.75;46.75;100825.81;5065525;28;20024;-58
2022/12/30 06:58:32;;;;;;;3.90;1.67;;;;;;;17.83;47.05;100839.28;5065148;28;20017;-58
2022/12/30 07:00:57;;;;;;;2.78;1.60;;;;;;;17.84;46.89;100832.06;5065454;28;20028;-57
2022/12/30 07:03:22;;;;;;;2.78;1.35;;;;;;;17.82;46.69;100826.84;5064780;28;20029;-56
2022/12/30 07:05:47;;;;;;;4.32;1.58;;;;;;;17.84;46.55;100818.59;5063462;28;20088;-58
2022/12/30 07:08:13;;;;;;;3.47;1.40;;;;;;;17.79;46.66;100813.72;5065126;28;20059;-57
2022/12/30 07:10:38;;;;;;;4.63;1.73;;;;;;;17.84;46.63;100827.53;5064904;28;20619;-58
2022/12/30 07:13:03;;;;;;;3.33;1.75;;;;;;;17.84;46.83;100830.22;5064905;28;20037;-58
2022/12/30 07:15:28;;;;;;;2.92;1.35;;;;;;;17.78;46.75;100813.91;5064801;28;20035;-58
2022/12/30 07:17:54;;;;;;;3.58;1.42;;;;;;;17.77;46.69;100813.06;5064639;28;20052;-58
2022/12/30 07:20:19;;;;;;;3.15;1.70;;;;;;;17.84;46.37;100823.97;5064278;28;20064;-58
2022/12/30 07:22:44;;;;;;;3.05;1.50;;;;;;;17.84;46.70;100810.53;5064921;28;20032;-57
2022/12/30 07:25:10;;;;;;;2.83;1.30;;;;;;;17.85;46.32;100813.09;5064916;28;20036;-58
2022/12/30 07:27:35;;;;;;;4.53;1.70;;;;;;;17.86;46.22;100808.53;5064487;28;20032;-57
2022/12/30 07:30:01;;;;;;;2.58;1.40;;;;;;;17.80;46.44;100796.59;5065124;28;20033;-56
2022/12/30 07:32:26;;;;;;;3.50;1.75;;;;;;;17.85;46.28;100801.50;5064715;28;20132;-56
2022/12/30 07:34:51;;;;;;;4.20;1.95;;;;;;;17.88;46.45;100793.94;5064167;28;20055;-61
2022/12/30 07:37:16;;;;;;;3.50;1.83;;;;;;;17.94;46.23;100789.75;5064494;28;20033;-58
2022/12/30 07:39:42;;;;;;;3.40;1.52;;;;;;;17.94;46.23;100801.34;5076238;28;20047;-59
2022/12/30 07:42:07;;;;;;;3.75;1.65;;;;;;;17.97;45.96;100794.78;5084999;28;20083;-59
2022/12/30 07:44:32;;;;;;;3.95;1.58;;;;;;;17.98;45.95;100789.25;5066063;28;20569;-60
2022/12/30 07:46:58;;;;;;;4.68;1.70;;;;;;;17.96;45.95;100785.03;5064501;28;20028;-57
2022/12/30 07:49:23;;;;;;;4.03;1.88;;;;;;;17.95;45.95;100784.19;5063639;28;20075;-59
2022/12/30 07:51:48;;;;;;;4.60;1.40;;;;;;;17.97;45.69;100770.59;5064729;28;20075;-58
2022/12/30 07:54:13;;;;;;;3.72;1.50;;;;;;;17.97;46.04;100770.59;5064482;28;20033;-58
2022/12/30 07:56:39;;;;;;;3.67;1.83;;;;;;;17.98;45.82;100772.25;5064550;28;20059;-60
2022/12/30 07:59:04;;;;;;;5.82;1.73;;;;;;;18.00;45.56;100772.91;5064446;28;20077;-58
2022/12/30 08:01:29;;;;;;;4.78;1.85;;;;;;;17.99;46.03;100769.41;5063134;28;20458;-58
2022/12/30 08:03:55;;;;;;;3.92;1.58;;;;;;;17.99;45.87;100766.72;5064699;28;20025;-59
2022/12/30 08:06:20;;;;;;;3.95;1.50;;;;;;;17.98;45.52;100759.66;5063739;28;20059;-58
2022/12/30 08:08:45;;;;;;;3.90;1.50;;;;;;;18.01;45.66;100754.94;5064235;28;20631;-58
2022/12/30 08:11:12;;;;;;;7.47;1.88;;;;;;;18.02;45.40;100745.88;5064521;28;20025;-58
2022/12/30 08:13:40;;;;;;;3.70;1.48;;;;;;;18.03;45.71;100736.78;5064088;28;20457;-58
2022/12/30 08:16:16;;;;;;;4.30;1.63;;;;;;;18.03;45.55;100731.41;5064226;28;20028;-58
2022/12/30 08:18:42;;;;;;;4.60;1.67;;;;;;;18.04;45.62;100730.41;5063944;28;20104;-58
2022/12/30 08:21:09;;;;;;;4.65;1.75;;;;;;;18.03;45.67;100715.25;5063685;28;20071;-58
2022/12/30 08:23:35;;;;;;;4.28;1.60;;;;;;;18.05;45.35;100724.00;5064297;28;20063;-58
2022/12/30 08:26:08;;;;;;;3.88;1.48;;;;;;;18.02;45.34;100703.66;5064210;28;20029;-58
2022/12/30 08:28:34;;;;;;;3.88;1.45;;;;;;;18.04;45.39;100698.09;5063971;28;20029;-58
2022/12/30 08:30:59;;;;;;;2.88;1.42;;;;;;;17.97;45.61;100690.72;5065518;28;20059;-58
2022/12/30 08:33:24;;;;;;;4.18;1.77;;;;;;;18.08;45.29;100704.84;5066729;28;20032;-58
2022/12/30 08:35:50;;;;;;;2.65;1.30;;;;;;;18.10;45.26;100700.16;5067496;28;20032;-58
2022/12/30 08:38:15;;;;;;;5.28;1.60;;;;;;;18.09;45.37;100701.97;5068150;28;20025;-58
2022/12/30 08:40:40;;;;;;;2.85;1.70;;;;;;;18.04;44.99;100690.88;5067776;28;20025;-58
2022/12/30 08:43:06;;;;;;;5.18;1.75;;;;;;;18.11;45.29;100702.66;5067974;28;20032;-58
2022/12/30 08:45:31;;;;;;;3.83;1.35;;;;;;;18.13;45.28;100691.72;5067219;28;20021;-58
2022/12/30 08:47:56;;;;;;;4.13;1.60;;;;;;;18.14;44.89;100679.97;5067304;28;20416;-57
2022/12/30 08:50:22;;;;;;;3.45;1.70;;;;;;;18.06;45.10;100661.97;5067408;28;20040;-57
2022/12/30 08:52:47;;;;;;;3.90;1.63;;;;;;;18.07;45.03;100668.19;5067765;28;20052;-58
2022/12/30 08:55:12;;;;;;;3.95;1.38;;;;;;;18.13;45.36;100668.34;5067535;28;20146;-57
2022/12/30 08:57:38;;;;;;;2.70;1.45;;;;;;;18.13;44.98;100664.81;5067779;28;20025;-57
2022/12/30 09:00:05;;;;;;;2.78;1.65;;;;;;;18.16;44.83;100659.09;5067438;28;20037;-58
2022/12/30 09:02:30;;;;;;;4.63;1.58;;;;;;;18.16;45.04;100659.94;5067449;28;20037;-58
2022/12/30 09:04:55;;;;;;;4.07;1.77;;;;;;;18.17;44.87;100664.28;5065720;28;20068;-57
2022/12/30 09:07:21;;;;;;;3.42;1.50;;;;;;;18.17;44.92;100664.28;5067569;28;20033;-57
2022/12/30 09:09:46;;;;;;;2.83;1.55;;;;;;;18.16;44.76;100656.41;5066885;28;20025;-57
2022/12/30 09:12:11;;;;;;;4.30;1.58;;;;;;;18.18;44.95;100655.25;5067392;28;20033;-55
2022/12/30 09:14:36;;;;;;;3.47;1.60;;;;;;;18.19;44.80;100651.53;5066889;28;20056;-57
2022/12/30 09:17:02;;;;;;;6.05;2.45;;;;;;;18.20;44.74;100655.06;5066963;28;20509;-57
2022/12/30 09:19:27;;;;;;;3.40;1.48;;;;;;;18.21;44.87;100651.34;5066788;28;20017;-58
2022/12/30 09:21:52;;;;;;;3.70;2.05;;;;;;;18.20;44.91;100642.44;5067447;28;20029;-57
2022/12/30 09:24:17;;;;;;;3.13;1.50;;;;;;;18.22;45.09;100631.50;5067115;28;20021;-58
2022/12/30 09:26:43;;;;;;;3.17;1.45;;;;;;;18.23;44.89;100631.34;5066851;28;20033;-57
2022/12/30 09:29:08;;;;;;;3.63;1.70;;;;;;;18.24;44.54;100621.41;5065724;28;20035;-57
2022/12/30 09:31:33;;;;;;;4.85;1.50;;;;;;;18.24;44.54;100610.66;5067053;28;20060;-58
2022/12/30 09:33:59;;;;;;;2.13;1.23;;;;;;;18.24;44.82;100618.72;5066343;28;20028;-57
2022/12/30 09:36:24;;;;;;;3.40;1.50;;;;;;;18.25;44.67;100617.69;5060491;28;20044;-58
2022/12/30 09:38:49;;;;;;;4.38;1.80;;;;;;;18.26;44.75;100618.53;5046790;28;20081;-57
2022/12/30 09:43:15;;;;;;;3.28;1.60;;;;;;;18.27;44.51;100614.88;5057932;28;20030;-57
2022/12/30 09:44:23;;;;;;;2.58;1.50;;;;;;;18.27;44.66;100601.41;5053371;28;20037;-56
2022/12/30 09:47:01;;;;;;;4.07;1.48;;;;;;;18.28;44.53;100595.84;5066371;28;20073;-57
2022/12/30 09:49:32;;;;;;;2.60;1.50;;;;;;;18.28;44.91;100595.84;5064464;28;20045;-58
2022/12/30 09:52:03;;;;;;;4.18;1.73;;;;;;;18.22;44.69;100583.06;5066775;28;20116;-58
2022/12/30 09:54:29;;;;;;;2.67;1.80;;;;;;;18.28;44.75;100590.47;5066153;28;20048;-58
2022/12/30 09:57:30;;;;;;;3.30;1.33;;;;;;;18.30;44.64;100580.34;5066457;28;20040;-58
2022/12/30 09:59:43;;;;;;;3.35;1.30;;;;;;;18.28;44.74;100577.00;5065712;28;20029;-58
2022/12/30 10:02:19;;;;;;;3.03;1.65;;;;;;;18.33;44.53;100584.56;5066356;28;20067;-58
2022/12/30 10:04:44;;;;;;;3.25;1.60;;;;;;;18.33;44.82;100593.47;5065547;28;20111;-58
2022/12/30 10:07:29;;;;;;;2.88;1.52;;;;;;;18.36;44.62;100593.13;5065984;28;20410;-58
2022/12/30 10:10:03;;;;;;;2.17;1.38;;;;;;;18.33;44.77;100576.47;5065814;28;20108;-58
2022/12/30 10:12:46;;;;;;;2.40;1.30;;;;;;;18.37;44.83;100577.81;5064773;28;20040;-59
2022/12/30 10:15:20;;;;;;;3.05;1.60;;;;;;;18.38;44.79;100568.72;5064143;28;20024;-58
2022/12/30 10:17:51;;;;;;;3.22;1.27;;;;;;;18.40;44.62;100572.94;5065972;28;20531;-58
2022/12/30 10:20:47;;;;;;;1.92;1.40;;;;;;;18.41;44.56;100558.44;5065615;28;20484;-58
2022/12/30 10:23:28;;;;;;;2.45;1.20;;;;;;;18.43;44.51;100552.88;5065905;28;20059;-57
2022/12/30 10:26:10;;;;;;;2.83;1.50;;;;;;;18.40;44.83;100546.00;5064542;28;20020;-58
2022/12/30 10:28:38;;;;;;;1.65;1.02;;;;;;;18.42;44.59;100543.97;5065687;28;20059;-57
2022/12/30 10:31:07;;;;;;;2.42;1.10;;;;;;;18.44;44.81;100541.13;5064754;28;20033;-57
2022/12/30 10:33:34;;;;;;;3.20;1.30;;;;;;;18.45;44.63;100529.34;5064276;28;20472;-57
2022/12/30 10:36:43;;;;;;;3.90;1.45;;;;;;;18.44;44.59;100514.22;5065063;28;20035;-57
2022/12/30 10:39:22;;;;;;;3.10;1.58;;;;;;;18.45;44.76;100516.72;5064230;28;20033;-57
2022/12/30 10:41:52;;;;;;;2.35;1.13;;;;;;;18.45;44.77;100503.25;5065611;28;20104;-57
2022/12/30 10:44:18;;;;;;;3.15;1.20;;;;;;;18.47;44.33;100497.69;5064965;28;20020;-58
2022/12/30 10:46:48;;;;;;;2.03;1.30;;;;;;;18.48;44.55;100475.16;5065181;28;20028;-58
2022/12/30 10:49:22;;;;;;;2.92;1.35;;;;;;;18.47;44.44;100490.44;5064315;28;20113;-58
2022/12/30 10:51:49;;;;;;;3.03;1.35;;;;;;;18.48;44.49;100472.47;5064207;28;20056;-58
2022/12/30 10:54:14;;;;;;;1.67;1.10;;;;;;;18.40;44.40;100459.03;5063963;28;20131;-58
2022/12/30 10:56:39;;;;;;;1.98;1.10;;;;;;;18.50;44.43;100459.66;5064818;28;20048;-58
2022/12/30 10:59:10;;;;;;;2.50;1.20;;;;;;;18.52;44.74;100451.38;5063556;28;20021;-58
2022/12/30 11:01:36;;;;;;;3.13;1.10;;;;;;;18.52;44.65;100452.25;5088824;28;20527;-57
2022/12/30 11:04:02;;;;;;;4.03;1.23;;;;;;;18.53;44.71;100458.47;5060120;28;20016;-58
2022/12/30 11:06:32;;;;;;;2.85;1.50;;;;;;;18.53;44.68;100436.94;5064449;28;20039;-58
2022/12/30 11:09:12;;;;;;;3.05;1.20;;;;;;;18.52;44.46;100428.03;5064347;28;20021;-59
2022/12/30 11:14:44;;;;;;;1.88;1.23;;;;;;;18.52;44.76;100398.41;5064526;28;20093;-58
2022/12/30 11:17:19;;;;;;;1.33;0.90;;;;;;;18.53;44.81;100381.22;5064760;28;20092;-59
2022/12/30 11:19:52;;;;;;;2.90;1.30;;;;;;;18.53;44.88;100383.94;5063981;28;20040;-59
2022/12/30 11:22:17;;;;;;;2.70;1.13;;;;;;;18.54;44.53;100374.81;5064158;28;20028;-59
2022/12/30 11:24:56;;;;;;;2.45;1.40;;;;;;;18.49;44.81;100347.63;5062593;28;20127;-58
2022/12/30 11:27:37;;;;;;;2.08;1.13;;;;;;;18.46;44.90;100343.41;5061272;28;20049;-59
2022/12/30 11:30:03;;;;;;;2.60;1.40;;;;;;;18.52;45.04;100349.09;5062036;28;20033;-58
2022/12/30 11:32:28;;;;;;;2.08;1.20;;;;;;;18.53;44.74;100342.72;5063155;28;20081;-58
2022/12/30 11:34:54;;;;;;;2.17;1.33;;;;;;;18.53;45.18;100338.16;5060895;28;20024;-58
2022/12/30 11:37:29;;;;;;;69.80;6.65;;;;;;;18.49;45.16;100312.63;5064770;28;20497;-57
2022/12/30 11:39:55;;;;;;;10.45;1.80;;;;;;;18.48;45.03;100295.63;5064577;28;20032;-58
2022/12/30 11:42:29;;;;;;;8.63;1.92;;;;;;;18.55;44.97;100294.91;5063885;28;20025;-58
2022/12/30 11:45:17;;;;;;;7.72;1.70;;;;;;;18.54;44.96;100264.44;5061087;28;20035;-58
2022/12/30 11:47:46;;;;;;;6.75;1.67;;;;;;;18.34;45.10;100237.19;5062690;28;20052;-58
2022/12/30 11:50:18;;;;;;;;;;;;;;;18.52;44.99;100249.47;5063934;28;20366;-58
2022/12/30 11:52:50;;;;;;;8.93;1.60;;;;;;;18.51;45.05;100235.19;5088409;28;19909;-59
2022/12/30 11:55:22;;;;;;;5.57;1.80;;;;;;;18.49;45.12;100232.69;5085283;28;20021;-59
2022/12/30 11:57:47;;;;;;;5.68;1.48;;;;;;;18.47;45.17;100213.19;5063926;28;20056;-58
2022/12/30 12:00:13;;;;;;;7.25;1.55;;;;;;;18.47;45.39;100205.09;5062916;28;20025;-57
2022/12/30 12:02:40;;;;;;;3.92;1.20;;;;;;;18.44;45.12;100189.34;5064355;28;20071;-58
2022/12/30 12:05:29;;;;;;;4.20;1.58;;;;;;;18.45;45.13;100182.94;5063673;28;20061;-59
2022/12/30 12:08:05;;;;;;;6.00;1.55;;;;;;;18.44;45.10;100167.81;5068580;28;20037;-58
2022/12/30 12:10:34;;;;;;;6.47;1.60;;;;;;;18.44;45.33;100161.59;5067151;28;20037;-59
2022/12/30 12:13:01;;;;;;;7.38;1.40;;;;;;;18.46;45.47;100152.28;5068518;28;20033;-59
2022/12/30 12:15:32;;;;;;;6.05;1.70;;;;;;;18.45;45.61;100142.56;5066342;28;20059;-59
2022/12/30 12:18:00;;;;;;;9.15;1.90;;;;;;;18.46;45.53;100128.06;5066941;28;20039;-58
2022/12/30 12:20:36;;;;;;;10.45;2.50;;;;;;;18.48;45.47;100136.81;5066477;28;20123;-58
2022/12/30 12:23:27;;;;;;;5.78;1.42;;;;;;;18.47;45.67;100112.75;5067168;28;20017;-58
2022/12/30 12:26:02;;;;;;;6.57;1.63;;;;;;;18.42;45.59;100121.38;5066424;28;20074;-58